sensor_id;sensor_type;location;lat;lon;timestamp;P1;durP1;ratioP1;P2;durP2;ratioP2
55015;SDS011;40919;43.236;21.590;2023-08-08T00:00:08;3.85;;;2.70;;
55015;SDS011;40919;43.236;21.590;2023-08-08T00:02:35;6.35;;;2.75;;
55015;SDS011;40919;43.236;21.590;2023-08-08T00:05:01;3.58;;;2.47;;
55015;SDS011;40919;43.236;21.590;2023-08-08T00:07:27;4.30;;;2.67;;
55015;SDS011;40919;43.236;21.590;2023-08-08T00:09:55;9.50;;;2.83;;
55015;SDS011;40919;43.236;21.590;2023-08-08T00:12:21;5.03;;;2.67;;
55015;SDS011;40919;43.236;21.590;2023-08-08T00:14:47;4.75;;;2.83;;
55015;SDS011;40919;43.236;21.590;2023-08-08T00:17:13;3.63;;;2.67;;
55015;SDS011;40919;43.236;21.590;2023-08-08T00:19:39;4.00;;;3.17;;
55015;SDS011;40919;43.236;21.590;2023-08-08T00:22:05;3.92;;;2.75;;
55015;SDS011;40919;43.236;21.590;2023-08-08T00:24:31;6.05;;;2.92;;
55015;SDS011;40919;43.236;21.590;2023-08-08T00:26:57;4.78;;;2.80;;
55015;SDS011;40919;43.236;21.590;2023-08-08T00:29:23;8.15;;;2.75;;
55015;SDS011;40919;43.236;21.590;2023-08-08T00:31:49;7.00;;;2.85;;
55015;SDS011;40919;43.236;21.590;2023-08-08T00:34:14;4.28;;;2.40;;
55015;SDS011;40919;43.236;21.590;2023-08-08T00:36:40;4.05;;;2.60;;
55015;SDS011;40919;43.236;21.590;2023-08-08T00:39:06;4.70;;;2.60;;
55015;SDS011;40919;43.236;21.590;2023-08-08T00:41:38;7.30;;;3.40;;
55015;SDS011;40919;43.236;21.590;2023-08-08T00:44:04;5.07;;;3.20;;
55015;SDS011;40919;43.236;21.590;2023-08-08T00:46:30;4.38;;;2.80;;
55015;SDS011;40919;43.236;21.590;2023-08-08T00:48:57;6.82;;;3.00;;
55015;SDS011;40919;43.236;21.590;2023-08-08T00:51:22;8.38;;;3.05;;
55015;SDS011;40919;43.236;21.590;2023-08-08T00:53:49;3.83;;;2.70;;
55015;SDS011;40919;43.236;21.590;2023-08-08T00:56:15;3.83;;;2.70;;
55015;SDS011;40919;43.236;21.590;2023-08-08T00:58:42;4.05;;;2.70;;
55015;SDS011;40919;43.236;21.590;2023-08-08T01:01:11;6.97;;;3.00;;
55015;SDS011;40919;43.236;21.590;2023-08-08T01:03:37;3.65;;;2.45;;
55015;SDS011;40919;43.236;21.590;2023-08-08T01:06:05;4.15;;;2.50;;
55015;SDS011;40919;43.236;21.590;2023-08-08T01:11:29;3.88;;;2.53;;
55015;SDS011;40919;43.236;21.590;2023-08-08T01:13:58;3.88;;;2.40;;
55015;SDS011;40919;43.236;21.590;2023-08-08T01:16:25;3.50;;;2.40;;
55015;SDS011;40919;43.236;21.590;2023-08-08T01:18:52;3.92;;;2.53;;
55015;SDS011;40919;43.236;21.590;2023-08-08T01:21:19;4.35;;;2.75;;
55015;SDS011;40919;43.236;21.590;2023-08-08T01:24:28;5.85;;;3.97;;
55015;SDS011;40919;43.236;21.590;2023-08-08T01:26:54;3.85;;;2.25;;
55015;SDS011;40919;43.236;21.590;2023-08-08T01:29:21;5.43;;;2.95;;
55015;SDS011;40919;43.236;21.590;2023-08-08T01:31:47;3.65;;;2.50;;
55015;SDS011;40919;43.236;21.590;2023-08-08T01:34:13;6.38;;;2.90;;
55015;SDS011;40919;43.236;21.590;2023-08-08T01:36:46;4.80;;;2.75;;
55015;SDS011;40919;43.236;21.590;2023-08-08T01:39:26;5.88;;;2.78;;
55015;SDS011;40919;43.236;21.590;2023-08-08T01:41:54;6.05;;;2.53;;
55015;SDS011;40919;43.236;21.590;2023-08-08T01:44:21;4.45;;;2.63;;
55015;SDS011;40919;43.236;21.590;2023-08-08T01:46:49;3.55;;;2.53;;
55015;SDS011;40919;43.236;21.590;2023-08-08T01:49:16;9.55;;;2.90;;
55015;SDS011;40919;43.236;21.590;2023-08-08T01:51:42;7.57;;;2.90;;
55015;SDS011;40919;43.236;21.590;2023-08-08T01:54:07;3.75;;;2.58;;
55015;SDS011;40919;43.236;21.590;2023-08-08T01:56:33;7.60;;;2.72;;
55015;SDS011;40919;43.236;21.590;2023-08-08T01:58:59;5.82;;;3.33;;
55015;SDS011;40919;43.236;21.590;2023-08-08T02:01:25;6.63;;;3.10;;
55015;SDS011;40919;43.236;21.590;2023-08-08T02:03:51;4.05;;;2.92;;
55015;SDS011;40919;43.236;21.590;2023-08-08T02:06:16;4.07;;;2.90;;
55015;SDS011;40919;43.236;21.590;2023-08-08T02:08:42;5.47;;;2.80;;
55015;SDS011;40919;43.236;21.590;2023-08-08T02:11:08;5.15;;;2.83;;
55015;SDS011;40919;43.236;21.590;2023-08-08T02:13:34;6.20;;;2.67;;
55015;SDS011;40919;43.236;21.590;2023-08-08T02:16:00;4.97;;;2.90;;
55015;SDS011;40919;43.236;21.590;2023-08-08T02:18:26;5.53;;;2.78;;
55015;SDS011;40919;43.236;21.590;2023-08-08T02:20:51;9.50;;;3.40;;
55015;SDS011;40919;43.236;21.590;2023-08-08T02:23:17;3.78;;;2.75;;
55015;SDS011;40919;43.236;21.590;2023-08-08T02:25:43;4.72;;;2.70;;
55015;SDS011;40919;43.236;21.590;2023-08-08T02:28:09;5.28;;;2.70;;
55015;SDS011;40919;43.236;21.590;2023-08-08T02:30:35;5.25;;;2.70;;
55015;SDS011;40919;43.236;21.590;2023-08-08T02:33:01;7.35;;;3.17;;
55015;SDS011;40919;43.236;21.590;2023-08-08T02:35:26;6.00;;;3.10;;
55015;SDS011;40919;43.236;21.590;2023-08-08T02:37:52;3.80;;;2.75;;
55015;SDS011;40919;43.236;21.590;2023-08-08T02:40:18;5.60;;;3.00;;
55015;SDS011;40919;43.236;21.590;2023-08-08T02:42:44;5.53;;;3.03;;
55015;SDS011;40919;43.236;21.590;2023-08-08T02:45:09;4.97;;;2.75;;
55015;SDS011;40919;43.236;21.590;2023-08-08T02:47:35;11.70;;;3.20;;
55015;SDS011;40919;43.236;21.590;2023-08-08T02:50:01;7.68;;;3.45;;
55015;SDS011;40919;43.236;21.590;2023-08-08T02:52:27;5.28;;;4.00;;
55015;SDS011;40919;43.236;21.590;2023-08-08T02:54:52;9.65;;;3.55;;
55015;SDS011;40919;43.236;21.590;2023-08-08T02:57:18;8.57;;;3.28;;
55015;SDS011;40919;43.236;21.590;2023-08-08T02:59:44;6.93;;;3.40;;
55015;SDS011;40919;43.236;21.590;2023-08-08T03:02:10;6.28;;;3.38;;
55015;SDS011;40919;43.236;21.590;2023-08-08T03:04:35;6.07;;;3.58;;
55015;SDS011;40919;43.236;21.590;2023-08-08T03:07:01;5.32;;;3.50;;
55015;SDS011;40919;43.236;21.590;2023-08-08T03:09:29;6.97;;;3.28;;
55015;SDS011;40919;43.236;21.590;2023-08-08T03:11:55;7.97;;;4.90;;
55015;SDS011;40919;43.236;21.590;2023-08-08T03:14:21;6.07;;;3.67;;
55015;SDS011;40919;43.236;21.590;2023-08-08T03:16:46;5.20;;;3.58;;
55015;SDS011;40919;43.236;21.590;2023-08-08T03:19:12;6.30;;;2.97;;
55015;SDS011;40919;43.236;21.590;2023-08-08T03:21:38;7.18;;;3.42;;
55015;SDS011;40919;43.236;21.590;2023-08-08T03:24:04;4.97;;;3.17;;
55015;SDS011;40919;43.236;21.590;2023-08-08T03:26:30;5.65;;;3.75;;
55015;SDS011;40919;43.236;21.590;2023-08-08T03:28:56;7.88;;;3.30;;
55015;SDS011;40919;43.236;21.590;2023-08-08T03:31:21;5.90;;;3.80;;
55015;SDS011;40919;43.236;21.590;2023-08-08T03:33:47;9.55;;;3.70;;
55015;SDS011;40919;43.236;21.590;2023-08-08T03:36:13;6.43;;;3.70;;
55015;SDS011;40919;43.236;21.590;2023-08-08T03:38:39;9.23;;;4.25;;
55015;SDS011;40919;43.236;21.590;2023-08-08T03:41:09;6.88;;;3.53;;
55015;SDS011;40919;43.236;21.590;2023-08-08T03:43:35;5.60;;;3.42;;
55015;SDS011;40919;43.236;21.590;2023-08-08T03:46:00;4.35;;;3.70;;
55015;SDS011;40919;43.236;21.590;2023-08-08T03:48:26;4.15;;;3.25;;
55015;SDS011;40919;43.236;21.590;2023-08-08T03:50:52;5.25;;;3.10;;
55015;SDS011;40919;43.236;21.590;2023-08-08T03:53:18;4.85;;;3.28;;
55015;SDS011;40919;43.236;21.590;2023-08-08T03:55:43;3.97;;;3.13;;
55015;SDS011;40919;43.236;21.590;2023-08-08T03:58:09;5.15;;;3.20;;
55015;SDS011;40919;43.236;21.590;2023-08-08T04:00:35;4.35;;;3.20;;
55015;SDS011;40919;43.236;21.590;2023-08-08T04:03:02;6.60;;;3.50;;
55015;SDS011;40919;43.236;21.590;2023-08-08T04:05:28;3.83;;;2.97;;
55015;SDS011;40919;43.236;21.590;2023-08-08T04:07:54;4.63;;;3.10;;
55015;SDS011;40919;43.236;21.590;2023-08-08T04:10:20;5.70;;;3.45;;
55015;SDS011;40919;43.236;21.590;2023-08-08T04:12:45;3.65;;;2.83;;
55015;SDS011;40919;43.236;21.590;2023-08-08T04:15:11;5.90;;;3.10;;
55015;SDS011;40919;43.236;21.590;2023-08-08T04:17:37;6.15;;;3.00;;
55015;SDS011;40919;43.236;21.590;2023-08-08T04:20:04;5.45;;;2.90;;
55015;SDS011;40919;43.236;21.590;2023-08-08T04:22:31;4.82;;;2.50;;
55015;SDS011;40919;43.236;21.590;2023-08-08T04:24:57;9.75;;;2.70;;
55015;SDS011;40919;43.236;21.590;2023-08-08T04:27:23;6.18;;;3.40;;
55015;SDS011;40919;43.236;21.590;2023-08-08T04:29:48;4.72;;;2.50;;
55015;SDS011;40919;43.236;21.590;2023-08-08T04:32:14;3.80;;;2.13;;
55015;SDS011;40919;43.236;21.590;2023-08-08T04:34:40;5.45;;;2.35;;
55015;SDS011;40919;43.236;21.590;2023-08-08T04:37:06;3.47;;;2.28;;
55015;SDS011;40919;43.236;21.590;2023-08-08T04:39:32;3.30;;;2.33;;
55015;SDS011;40919;43.236;21.590;2023-08-08T04:41:57;3.92;;;1.95;;
55015;SDS011;40919;43.236;21.590;2023-08-08T04:44:23;3.42;;;2.20;;
55015;SDS011;40919;43.236;21.590;2023-08-08T04:46:49;3.55;;;2.10;;
55015;SDS011;40919;43.236;21.590;2023-08-08T04:49:14;3.88;;;2.55;;
55015;SDS011;40919;43.236;21.590;2023-08-08T04:51:40;5.07;;;2.13;;
55015;SDS011;40919;43.236;21.590;2023-08-08T04:54:06;5.50;;;1.90;;
55015;SDS011;40919;43.236;21.590;2023-08-08T04:56:32;4.57;;;2.17;;
55015;SDS011;40919;43.236;21.590;2023-08-08T04:58:58;4.20;;;2.08;;
55015;SDS011;40919;43.236;21.590;2023-08-08T05:01:24;3.40;;;2.10;;
55015;SDS011;40919;43.236;21.590;2023-08-08T05:03:50;3.30;;;2.13;;
55015;SDS011;40919;43.236;21.590;2023-08-08T05:06:17;5.07;;;2.35;;
55015;SDS011;40919;43.236;21.590;2023-08-08T05:08:43;8.50;;;2.03;;
55015;SDS011;40919;43.236;21.590;2023-08-08T05:11:09;4.60;;;2.38;;
55015;SDS011;40919;43.236;21.590;2023-08-08T05:13:35;3.50;;;2.13;;
55015;SDS011;40919;43.236;21.590;2023-08-08T05:16:01;4.50;;;2.05;;
55015;SDS011;40919;43.236;21.590;2023-08-08T05:18:27;3.22;;;2.10;;
55015;SDS011;40919;43.236;21.590;2023-08-08T05:20:53;3.72;;;2.10;;
55015;SDS011;40919;43.236;21.590;2023-08-08T05:23:19;4.97;;;2.33;;
55015;SDS011;40919;43.236;21.590;2023-08-08T05:25:45;5.95;;;2.42;;
55015;SDS011;40919;43.236;21.590;2023-08-08T05:28:11;3.50;;;2.55;;
55015;SDS011;40919;43.236;21.590;2023-08-08T05:30:37;7.43;;;2.45;;
55015;SDS011;40919;43.236;21.590;2023-08-08T05:33:04;5.85;;;2.67;;
55015;SDS011;40919;43.236;21.590;2023-08-08T05:35:30;4.18;;;2.50;;
55015;SDS011;40919;43.236;21.590;2023-08-08T05:37:56;5.13;;;2.80;;
55015;SDS011;40919;43.236;21.590;2023-08-08T05:40:22;3.72;;;2.78;;
55015;SDS011;40919;43.236;21.590;2023-08-08T05:42:48;3.97;;;2.30;;
55015;SDS011;40919;43.236;21.590;2023-08-08T05:45:14;5.75;;;2.58;;
55015;SDS011;40919;43.236;21.590;2023-08-08T05:47:40;5.05;;;2.40;;
55015;SDS011;40919;43.236;21.590;2023-08-08T05:50:07;5.53;;;2.50;;
55015;SDS011;40919;43.236;21.590;2023-08-08T05:52:33;4.43;;;3.00;;
55015;SDS011;40919;43.236;21.590;2023-08-08T05:54:59;3.92;;;2.30;;
55015;SDS011;40919;43.236;21.590;2023-08-08T05:57:25;4.15;;;2.55;;
55015;SDS011;40919;43.236;21.590;2023-08-08T05:59:52;4.07;;;2.40;;
55015;SDS011;40919;43.236;21.590;2023-08-08T06:02:18;4.18;;;2.72;;
55015;SDS011;40919;43.236;21.590;2023-08-08T06:04:44;3.25;;;2.08;;
55015;SDS011;40919;43.236;21.590;2023-08-08T06:07:10;4.22;;;2.28;;
55015;SDS011;40919;43.236;21.590;2023-08-08T06:09:36;6.43;;;2.05;;
55015;SDS011;40919;43.236;21.590;2023-08-08T06:12:03;4.05;;;2.03;;
55015;SDS011;40919;43.236;21.590;2023-08-08T06:14:30;3.55;;;1.90;;
55015;SDS011;40919;43.236;21.590;2023-08-08T06:16:56;3.40;;;2.00;;
55015;SDS011;40919;43.236;21.590;2023-08-08T06:19:22;3.28;;;2.13;;
55015;SDS011;40919;43.236;21.590;2023-08-08T06:21:48;3.05;;;1.90;;
55015;SDS011;40919;43.236;21.590;2023-08-08T06:24:15;4.68;;;2.08;;
55015;SDS011;40919;43.236;21.590;2023-08-08T06:26:41;4.18;;;1.75;;
55015;SDS011;40919;43.236;21.590;2023-08-08T06:29:07;3.17;;;2.00;;
55015;SDS011;40919;43.236;21.590;2023-08-08T06:31:33;2.90;;;1.55;;
55015;SDS011;40919;43.236;21.590;2023-08-08T06:33:59;3.40;;;1.63;;
55015;SDS011;40919;43.236;21.590;2023-08-08T06:36:26;3.42;;;1.60;;
55015;SDS011;40919;43.236;21.590;2023-08-08T06:38:52;5.78;;;1.67;;
55015;SDS011;40919;43.236;21.590;2023-08-08T06:41:18;5.10;;;1.80;;
55015;SDS011;40919;43.236;21.590;2023-08-08T06:43:44;6.22;;;2.40;;
55015;SDS011;40919;43.236;21.590;2023-08-08T06:46:10;3.22;;;1.60;;
55015;SDS011;40919;43.236;21.590;2023-08-08T06:48:37;3.40;;;1.60;;
55015;SDS011;40919;43.236;21.590;2023-08-08T06:51:03;4.30;;;2.58;;
55015;SDS011;40919;43.236;21.590;2023-08-08T06:53:29;7.47;;;2.22;;
55015;SDS011;40919;43.236;21.590;2023-08-08T06:55:55;4.47;;;1.83;;
55015;SDS011;40919;43.236;21.590;2023-08-08T06:58:21;3.28;;;1.90;;
55015;SDS011;40919;43.236;21.590;2023-08-08T07:00:47;3.45;;;2.05;;
55015;SDS011;40919;43.236;21.590;2023-08-08T07:03:12;4.20;;;2.35;;
55015;SDS011;40919;43.236;21.590;2023-08-08T07:05:38;3.40;;;2.00;;
55015;SDS011;40919;43.236;21.590;2023-08-08T07:08:04;5.28;;;1.70;;
55015;SDS011;40919;43.236;21.590;2023-08-08T07:10:30;4.88;;;1.73;;
55015;SDS011;40919;43.236;21.590;2023-08-08T07:12:56;4.25;;;2.13;;
55015;SDS011;40919;43.236;21.590;2023-08-08T07:15:22;3.92;;;2.40;;
55015;SDS011;40919;43.236;21.590;2023-08-08T07:17:47;4.63;;;2.70;;
55015;SDS011;40919;43.236;21.590;2023-08-08T07:20:13;8.88;;;2.88;;
55015;SDS011;40919;43.236;21.590;2023-08-08T07:22:39;4.15;;;2.10;;
55015;SDS011;40919;43.236;21.590;2023-08-08T07:25:05;6.75;;;2.50;;
55015;SDS011;40919;43.236;21.590;2023-08-08T07:27:31;3.72;;;2.03;;
55015;SDS011;40919;43.236;21.590;2023-08-08T07:29:57;6.45;;;2.10;;
55015;SDS011;40919;43.236;21.590;2023-08-08T07:32:24;7.30;;;2.50;;
55015;SDS011;40919;43.236;21.590;2023-08-08T07:34:50;4.00;;;2.10;;
55015;SDS011;40919;43.236;21.590;2023-08-08T07:37:15;3.83;;;1.98;;
55015;SDS011;40919;43.236;21.590;2023-08-08T07:39:41;4.68;;;1.83;;
55015;SDS011;40919;43.236;21.590;2023-08-08T07:42:07;5.32;;;1.90;;
55015;SDS011;40919;43.236;21.590;2023-08-08T07:44:32;4.40;;;2.70;;
55015;SDS011;40919;43.236;21.590;2023-08-08T07:47:00;3.83;;;2.28;;
55015;SDS011;40919;43.236;21.590;2023-08-08T07:49:25;4.80;;;2.50;;
55015;SDS011;40919;43.236;21.590;2023-08-08T07:51:51;3.15;;;2.13;;
55015;SDS011;40919;43.236;21.590;2023-08-08T07:54:17;4.28;;;2.65;;
55015;SDS011;40919;43.236;21.590;2023-08-08T07:56:43;4.07;;;2.47;;
55015;SDS011;40919;43.236;21.590;2023-08-08T07:59:08;3.80;;;2.53;;
55015;SDS011;40919;43.236;21.590;2023-08-08T08:01:35;4.75;;;2.55;;
55015;SDS011;40919;43.236;21.590;2023-08-08T08:04:00;5.28;;;2.33;;
55015;SDS011;40919;43.236;21.590;2023-08-08T08:06:27;3.63;;;2.35;;
55015;SDS011;40919;43.236;21.590;2023-08-08T08:08:53;3.90;;;2.40;;
55015;SDS011;40919;43.236;21.590;2023-08-08T08:11:19;3.42;;;2.20;;
55015;SDS011;40919;43.236;21.590;2023-08-08T08:13:45;4.13;;;2.05;;
55015;SDS011;40919;43.236;21.590;2023-08-08T08:16:11;3.80;;;2.55;;
55015;SDS011;40919;43.236;21.590;2023-08-08T08:18:36;3.20;;;2.13;;
55015;SDS011;40919;43.236;21.590;2023-08-08T08:21:02;5.45;;;2.45;;
55015;SDS011;40919;43.236;21.590;2023-08-08T08:23:28;3.05;;;1.90;;
55015;SDS011;40919;43.236;21.590;2023-08-08T08:25:55;3.38;;;2.20;;
55015;SDS011;40919;43.236;21.590;2023-08-08T08:28:21;5.35;;;2.40;;
55015;SDS011;40919;43.236;21.590;2023-08-08T08:30:47;4.95;;;2.10;;
55015;SDS011;40919;43.236;21.590;2023-08-08T08:33:13;3.60;;;1.77;;
55015;SDS011;40919;43.236;21.590;2023-08-08T08:35:39;2.85;;;1.90;;
55015;SDS011;40919;43.236;21.590;2023-08-08T08:38:04;3.42;;;2.20;;
55015;SDS011;40919;43.236;21.590;2023-08-08T08:40:34;3.00;;;2.15;;
55015;SDS011;40919;43.236;21.590;2023-08-08T08:43:03;2.90;;;2.03;;
55015;SDS011;40919;43.236;21.590;2023-08-08T08:45:30;3.55;;;2.15;;
55015;SDS011;40919;43.236;21.590;2023-08-08T08:47:57;3.15;;;1.88;;
55015;SDS011;40919;43.236;21.590;2023-08-08T08:50:24;6.47;;;2.75;;
55015;SDS011;40919;43.236;21.590;2023-08-08T08:52:52;3.50;;;2.38;;
55015;SDS011;40919;43.236;21.590;2023-08-08T08:55:21;4.22;;;2.55;;
55015;SDS011;40919;43.236;21.590;2023-08-08T08:57:47;4.15;;;1.80;;
55015;SDS011;40919;43.236;21.590;2023-08-08T09:00:14;3.22;;;2.10;;
55015;SDS011;40919;43.236;21.590;2023-08-08T09:02:41;4.43;;;2.85;;
55015;SDS011;40919;43.236;21.590;2023-08-08T09:05:07;4.35;;;2.83;;
55015;SDS011;40919;43.236;21.590;2023-08-08T09:07:34;3.60;;;2.55;;
55015;SDS011;40919;43.236;21.590;2023-08-08T09:10:01;3.05;;;2.28;;
55015;SDS011;40919;43.236;21.590;2023-08-08T09:12:28;3.72;;;2.35;;
55015;SDS011;40919;43.236;21.590;2023-08-08T09:14:56;4.00;;;2.55;;
55015;SDS011;40919;43.236;21.590;2023-08-08T09:17:22;4.70;;;2.70;;
55015;SDS011;40919;43.236;21.590;2023-08-08T09:19:52;3.63;;;2.55;;
55015;SDS011;40919;43.236;21.590;2023-08-08T09:22:19;4.03;;;2.58;;
55015;SDS011;40919;43.236;21.590;2023-08-08T09:24:45;3.03;;;2.13;;
55015;SDS011;40919;43.236;21.590;2023-08-08T09:27:11;3.72;;;2.45;;
55015;SDS011;40919;43.236;21.590;2023-08-08T09:29:40;6.53;;;2.22;;
55015;SDS011;40919;43.236;21.590;2023-08-08T09:32:07;4.78;;;2.50;;
55015;SDS011;40919;43.236;21.590;2023-08-08T09:34:33;3.70;;;2.38;;
55015;SDS011;40919;43.236;21.590;2023-08-08T09:36:59;4.28;;;2.90;;
55015;SDS011;40919;43.236;21.590;2023-08-08T09:39:26;3.65;;;2.67;;
55015;SDS011;40919;43.236;21.590;2023-08-08T09:41:52;4.07;;;2.50;;
55015;SDS011;40919;43.236;21.590;2023-08-08T09:44:22;3.95;;;2.55;;
55015;SDS011;40919;43.236;21.590;2023-08-08T09:46:50;3.30;;;2.50;;
55015;SDS011;40919;43.236;21.590;2023-08-08T09:49:16;2.90;;;2.10;;
55015;SDS011;40919;43.236;21.590;2023-08-08T09:51:42;4.25;;;2.50;;
55015;SDS011;40919;43.236;21.590;2023-08-08T09:54:08;3.75;;;2.30;;
55015;SDS011;40919;43.236;21.590;2023-08-08T09:56:36;3.72;;;2.50;;
55015;SDS011;40919;43.236;21.590;2023-08-08T09:59:04;4.00;;;2.28;;
55015;SDS011;40919;43.236;21.590;2023-08-08T10:01:31;3.40;;;2.00;;
55015;SDS011;40919;43.236;21.590;2023-08-08T10:03:57;3.60;;;2.25;;
55015;SDS011;40919;43.236;21.590;2023-08-08T10:06:24;4.45;;;2.33;;
55015;SDS011;40919;43.236;21.590;2023-08-08T10:08:51;3.28;;;2.15;;
55015;SDS011;40919;43.236;21.590;2023-08-08T10:11:17;4.32;;;3.08;;
55015;SDS011;40919;43.236;21.590;2023-08-08T10:13:48;3.38;;;2.22;;
55015;SDS011;40919;43.236;21.590;2023-08-08T10:16:16;4.50;;;1.98;;
55015;SDS011;40919;43.236;21.590;2023-08-08T10:18:42;6.07;;;3.05;;
55015;SDS011;40919;43.236;21.590;2023-08-08T10:21:08;3.00;;;1.88;;
55015;SDS011;40919;43.236;21.590;2023-08-08T10:23:38;4.40;;;2.03;;
55015;SDS011;40919;43.236;21.590;2023-08-08T10:26:04;3.28;;;1.92;;
55015;SDS011;40919;43.236;21.590;2023-08-08T10:28:51;3.10;;;1.90;;
55015;SDS011;40919;43.236;21.590;2023-08-08T10:31:21;3.25;;;2.03;;
55015;SDS011;40919;43.236;21.590;2023-08-08T10:33:47;5.82;;;3.45;;
55015;SDS011;40919;43.236;21.590;2023-08-08T10:36:13;3.20;;;1.83;;
55015;SDS011;40919;43.236;21.590;2023-08-08T10:38:40;3.55;;;1.70;;
55015;SDS011;40919;43.236;21.590;2023-08-08T10:41:17;3.33;;;1.80;;
55015;SDS011;40919;43.236;21.590;2023-08-08T10:43:51;4.38;;;1.70;;
55015;SDS011;40919;43.236;21.590;2023-08-08T10:46:24;2.58;;;1.60;;
55015;SDS011;40919;43.236;21.590;2023-08-08T10:48:51;2.78;;;1.38;;
55015;SDS011;40919;43.236;21.590;2023-08-08T10:51:18;3.00;;;1.60;;
55015;SDS011;40919;43.236;21.590;2023-08-08T10:53:44;2.78;;;1.38;;
55015;SDS011;40919;43.236;21.590;2023-08-08T10:56:12;2.85;;;1.60;;
55015;SDS011;40919;43.236;21.590;2023-08-08T10:58:40;2.35;;;1.30;;
55015;SDS011;40919;43.236;21.590;2023-08-08T11:01:06;2.75;;;1.20;;
55015;SDS011;40919;43.236;21.590;2023-08-08T11:03:40;3.83;;;1.15;;
55015;SDS011;40919;43.236;21.590;2023-08-08T11:06:07;2.25;;;1.25;;
55015;SDS011;40919;43.236;21.590;2023-08-08T11:08:33;2.47;;;1.17;;
55015;SDS011;40919;43.236;21.590;2023-08-08T11:11:01;3.58;;;1.45;;
55015;SDS011;40919;43.236;21.590;2023-08-08T11:13:28;2.70;;;1.25;;
55015;SDS011;40919;43.236;21.590;2023-08-08T11:15:54;3.20;;;1.30;;
55015;SDS011;40919;43.236;21.590;2023-08-08T11:18:20;2.63;;;1.60;;
55015;SDS011;40919;43.236;21.590;2023-08-08T11:20:47;3.40;;;2.20;;
55015;SDS011;40919;43.236;21.590;2023-08-08T11:23:14;7.97;;;3.40;;
55015;SDS011;40919;43.236;21.590;2023-08-08T11:25:41;3.92;;;1.80;;
55015;SDS011;40919;43.236;21.590;2023-08-08T11:28:08;3.95;;;1.20;;
55015;SDS011;40919;43.236;21.590;2023-08-08T11:30:37;3.40;;;1.65;;
55015;SDS011;40919;43.236;21.590;2023-08-08T11:33:04;3.13;;;1.50;;
55015;SDS011;40919;43.236;21.590;2023-08-08T11:35:31;2.17;;;1.10;;
55015;SDS011;40919;43.236;21.590;2023-08-08T11:37:59;2.45;;;1.30;;
55015;SDS011;40919;43.236;21.590;2023-08-08T11:40:26;3.45;;;2.10;;
55015;SDS011;40919;43.236;21.590;2023-08-08T11:42:53;4.40;;;1.85;;
55015;SDS011;40919;43.236;21.590;2023-08-08T11:45:21;3.20;;;1.50;;
55015;SDS011;40919;43.236;21.590;2023-08-08T11:47:51;2.25;;;1.20;;
55015;SDS011;40919;43.236;21.590;2023-08-08T11:50:19;4.50;;;1.80;;
55015;SDS011;40919;43.236;21.590;2023-08-08T11:52:48;1.98;;;1.10;;
55015;SDS011;40919;43.236;21.590;2023-08-08T11:55:15;2.88;;;1.20;;
55015;SDS011;40919;43.236;21.590;2023-08-08T11:57:41;3.30;;;1.27;;
55015;SDS011;40919;43.236;21.590;2023-08-08T12:00:08;3.08;;;1.10;;
55015;SDS011;40919;43.236;21.590;2023-08-08T12:02:39;2.60;;;1.00;;
55015;SDS011;40919;43.236;21.590;2023-08-08T12:07:34;2.53;;;1.30;;
55015;SDS011;40919;43.236;21.590;2023-08-08T12:10:05;2.10;;;1.00;;
55015;SDS011;40919;43.236;21.590;2023-08-08T12:12:31;2.88;;;1.60;;
55015;SDS011;40919;43.236;21.590;2023-08-08T12:15:05;5.53;;;2.00;;
55015;SDS011;40919;43.236;21.590;2023-08-08T12:17:31;3.35;;;1.80;;
55015;SDS011;40919;43.236;21.590;2023-08-08T12:20:02;4.00;;;1.60;;
55015;SDS011;40919;43.236;21.590;2023-08-08T12:22:30;3.33;;;1.90;;
55015;SDS011;40919;43.236;21.590;2023-08-08T12:24:56;2.72;;;1.27;;
55015;SDS011;40919;43.236;21.590;2023-08-08T12:27:22;3.28;;;1.48;;
55015;SDS011;40919;43.236;21.590;2023-08-08T12:29:48;3.35;;;1.70;;
55015;SDS011;40919;43.236;21.590;2023-08-08T12:32:15;3.08;;;1.40;;
55015;SDS011;40919;43.236;21.590;2023-08-08T12:34:41;2.35;;;1.23;;
55015;SDS011;40919;43.236;21.590;2023-08-08T12:37:07;5.72;;;1.40;;
55015;SDS011;40919;43.236;21.590;2023-08-08T12:39:33;1.90;;;0.98;;
55015;SDS011;40919;43.236;21.590;2023-08-08T12:41:59;5.00;;;1.20;;
55015;SDS011;40919;43.236;21.590;2023-08-08T12:44:25;2.20;;;1.10;;
55015;SDS011;40919;43.236;21.590;2023-08-08T12:46:52;2.58;;;1.55;;
55015;SDS011;40919;43.236;21.590;2023-08-08T12:49:18;2.83;;;1.50;;
55015;SDS011;40919;43.236;21.590;2023-08-08T12:51:44;2.83;;;1.30;;
55015;SDS011;40919;43.236;21.590;2023-08-08T12:54:10;3.33;;;1.60;;
55015;SDS011;40919;43.236;21.590;2023-08-08T12:56:36;4.47;;;2.35;;
55015;SDS011;40919;43.236;21.590;2023-08-08T12:59:02;2.67;;;1.42;;
55015;SDS011;40919;43.236;21.590;2023-08-08T13:01:28;2.25;;;1.20;;
55015;SDS011;40919;43.236;21.590;2023-08-08T13:03:54;2.97;;;1.48;;
55015;SDS011;40919;43.236;21.590;2023-08-08T13:06:20;2.20;;;1.10;;
55015;SDS011;40919;43.236;21.590;2023-08-08T13:08:45;2.72;;;1.38;;
55015;SDS011;40919;43.236;21.590;2023-08-08T13:11:11;5.05;;;1.55;;
55015;SDS011;40919;43.236;21.590;2023-08-08T13:13:37;4.82;;;1.60;;
55015;SDS011;40919;43.236;21.590;2023-08-08T13:16:03;2.85;;;1.33;;
55015;SDS011;40919;43.236;21.590;2023-08-08T13:18:29;2.28;;;1.10;;
55015;SDS011;40919;43.236;21.590;2023-08-08T13:20:55;3.20;;;1.50;;
55015;SDS011;40919;43.236;21.590;2023-08-08T13:23:21;4.30;;;2.47;;
55015;SDS011;40919;43.236;21.590;2023-08-08T13:25:46;4.18;;;1.20;;
55015;SDS011;40919;43.236;21.590;2023-08-08T13:28:14;3.20;;;1.30;;
55015;SDS011;40919;43.236;21.590;2023-08-08T13:30:40;2.88;;;1.52;;
55015;SDS011;40919;43.236;21.590;2023-08-08T13:33:07;4.82;;;1.88;;
55015;SDS011;40919;43.236;21.590;2023-08-08T13:35:34;3.55;;;1.50;;
55015;SDS011;40919;43.236;21.590;2023-08-08T13:37:59;3.80;;;1.88;;
55015;SDS011;40919;43.236;21.590;2023-08-08T13:40:25;2.92;;;1.27;;
55015;SDS011;40919;43.236;21.590;2023-08-08T13:42:51;3.95;;;1.50;;
55015;SDS011;40919;43.236;21.590;2023-08-08T13:45:17;4.60;;;1.40;;
55015;SDS011;40919;43.236;21.590;2023-08-08T13:47:45;2.70;;;1.25;;
55015;SDS011;40919;43.236;21.590;2023-08-08T13:50:10;3.75;;;1.75;;
55015;SDS011;40919;43.236;21.590;2023-08-08T13:52:38;3.30;;;2.00;;
55015;SDS011;40919;43.236;21.590;2023-08-08T13:55:06;5.50;;;1.73;;
55015;SDS011;40919;43.236;21.590;2023-08-08T13:57:33;3.42;;;1.67;;
55015;SDS011;40919;43.236;21.590;2023-08-08T14:00:01;3.20;;;1.50;;
55015;SDS011;40919;43.236;21.590;2023-08-08T14:02:28;2.47;;;1.30;;
55015;SDS011;40919;43.236;21.590;2023-08-08T14:04:55;3.33;;;1.40;;
55015;SDS011;40919;43.236;21.590;2023-08-08T14:07:20;3.60;;;1.50;;
55015;SDS011;40919;43.236;21.590;2023-08-08T14:09:46;2.88;;;1.42;;
55015;SDS011;40919;43.236;21.590;2023-08-08T14:12:12;2.80;;;1.52;;
55015;SDS011;40919;43.236;21.590;2023-08-08T14:14:38;3.85;;;1.40;;
55015;SDS011;40919;43.236;21.590;2023-08-08T14:17:05;3.40;;;1.50;;
55015;SDS011;40919;43.236;21.590;2023-08-08T14:19:31;2.88;;;1.20;;
55015;SDS011;40919;43.236;21.590;2023-08-08T14:21:57;3.28;;;1.60;;
55015;SDS011;40919;43.236;21.590;2023-08-08T14:24:23;3.75;;;1.60;;
55015;SDS011;40919;43.236;21.590;2023-08-08T14:26:49;3.75;;;1.20;;
55015;SDS011;40919;43.236;21.590;2023-08-08T14:29:16;4.07;;;1.42;;
55015;SDS011;40919;43.236;21.590;2023-08-08T14:31:42;10.07;;;5.05;;
55015;SDS011;40919;43.236;21.590;2023-08-08T14:34:08;4.03;;;1.70;;